sensor_id;sensor_type;location;lat;lon;timestamp;temperature;humidity
7512;DHT22;9999;48.780;9.146;2023-06-14T00:02:25;17.00;65.30
7512;DHT22;9999;48.780;9.146;2023-06-14T00:04:52;16.90;66.60
7512;DHT22;9999;48.780;9.146;2023-06-14T00:07:22;16.90;65.70
7512;DHT22;9999;48.780;9.146;2023-06-14T00:09:59;16.90;65.40
7512;DHT22;9999;48.780;9.146;2023-06-14T00:12:27;16.80;69.40
7512;DHT22;9999;48.780;9.146;2023-06-14T00:14:54;16.70;68.80
7512;DHT22;9999;48.780;9.146;2023-06-14T00:17:21;16.70;68.40
7512;DHT22;9999;48.780;9.146;2023-06-14T00:19:49;16.60;69.40
7512;DHT22;9999;48.780;9.146;2023-06-14T00:22:15;16.60;68.50
7512;DHT22;9999;48.780;9.146;2023-06-14T00:24:42;16.50;68.30
7512;DHT22;9999;48.780;9.146;2023-06-14T00:27:09;16.40;68.80
7512;DHT22;9999;48.780;9.146;2023-06-14T00:29:38;16.40;69.00
7512;DHT22;9999;48.780;9.146;2023-06-14T00:32:05;16.50;69.00
7512;DHT22;9999;48.780;9.146;2023-06-14T00:34:32;16.40;71.00
7512;DHT22;9999;48.780;9.146;2023-06-14T00:37:00;16.40;69.60
7512;DHT22;9999;48.780;9.146;2023-06-14T00:39:27;16.50;69.80
7512;DHT22;9999;48.780;9.146;2023-06-14T00:41:55;16.50;71.60
7512;DHT22;9999;48.780;9.146;2023-06-14T00:44:21;16.30;72.70
7512;DHT22;9999;48.780;9.146;2023-06-14T00:46:50;16.30;73.80
7512;DHT22;9999;48.780;9.146;2023-06-14T00:49:18;16.30;72.80
7512;DHT22;9999;48.780;9.146;2023-06-14T00:51:46;16.30;73.80
7512;DHT22;9999;48.780;9.146;2023-06-14T00:54:13;16.30;73.50
7512;DHT22;9999;48.780;9.146;2023-06-14T00:56:40;16.30;74.90
7512;DHT22;9999;48.780;9.146;2023-06-14T00:59:09;16.30;76.40
7512;DHT22;9999;48.780;9.146;2023-06-14T01:01:36;16.30;74.70
7512;DHT22;9999;48.780;9.146;2023-06-14T01:04:05;16.30;74.00
7512;DHT22;9999;48.780;9.146;2023-06-14T01:06:41;16.20;76.30
7512;DHT22;9999;48.780;9.146;2023-06-14T01:09:15;16.20;75.00
7512;DHT22;9999;48.780;9.146;2023-06-14T01:11:49;16.10;79.30
7512;DHT22;9999;48.780;9.146;2023-06-14T01:14:18;16.00;77.00
7512;DHT22;9999;48.780;9.146;2023-06-14T01:16:47;16.00;76.90
7512;DHT22;9999;48.780;9.146;2023-06-14T01:19:22;15.80;75.40
7512;DHT22;9999;48.780;9.146;2023-06-14T01:21:51;15.80;75.60
7512;DHT22;9999;48.780;9.146;2023-06-14T01:24:19;15.80;75.40
7512;DHT22;9999;48.780;9.146;2023-06-14T01:26:49;15.80;77.60
7512;DHT22;9999;48.780;9.146;2023-06-14T01:29:22;15.70;77.30
7512;DHT22;9999;48.780;9.146;2023-06-14T01:31:53;15.60;79.60
7512;DHT22;9999;48.780;9.146;2023-06-14T01:34:20;15.60;81.00
7512;DHT22;9999;48.780;9.146;2023-06-14T01:36:52;15.60;79.20
7512;DHT22;9999;48.780;9.146;2023-06-14T01:39:22;15.60;77.90
7512;DHT22;9999;48.780;9.146;2023-06-14T01:41:50;15.60;80.70
7512;DHT22;9999;48.780;9.146;2023-06-14T01:44:18;15.70;81.00
7512;DHT22;9999;48.780;9.146;2023-06-14T01:46:45;15.60;82.30
7512;DHT22;9999;48.780;9.146;2023-06-14T01:49:12;15.60;83.70
7512;DHT22;9999;48.780;9.146;2023-06-14T01:51:39;15.70;83.30
7512;DHT22;9999;48.780;9.146;2023-06-14T01:54:08;15.60;86.10
7512;DHT22;9999;48.780;9.146;2023-06-14T01:56:36;15.50;81.30
7512;DHT22;9999;48.780;9.146;2023-06-14T01:59:03;15.40;85.40
7512;DHT22;9999;48.780;9.146;2023-06-14T02:01:29;15.40;85.20
7512;DHT22;9999;48.780;9.146;2023-06-14T02:03:56;15.40;87.90
7512;DHT22;9999;48.780;9.146;2023-06-14T02:06:26;15.40;89.80
7512;DHT22;9999;48.780;9.146;2023-06-14T02:08:53;15.40;88.10
7512;DHT22;9999;48.780;9.146;2023-06-14T02:11:20;15.30;89.60
7512;DHT22;9999;48.780;9.146;2023-06-14T02:13:48;15.20;88.50
7512;DHT22;9999;48.780;9.146;2023-06-14T02:16:15;15.20;89.60
7512;DHT22;9999;48.780;9.146;2023-06-14T02:18:42;15.20;88.70
7512;DHT22;9999;48.780;9.146;2023-06-14T02:21:09;15.10;87.20
7512;DHT22;9999;48.780;9.146;2023-06-14T02:23:36;15.10;89.40
7512;DHT22;9999;48.780;9.146;2023-06-14T02:26:03;15.00;87.60
7512;DHT22;9999;48.780;9.146;2023-06-14T02:28:29;15.10;90.80
7512;DHT22;9999;48.780;9.146;2023-06-14T02:30:57;14.90;90.30
7512;DHT22;9999;48.780;9.146;2023-06-14T02:33:24;14.90;90.20
7512;DHT22;9999;48.780;9.146;2023-06-14T02:35:52;15.00;90.90
7512;DHT22;9999;48.780;9.146;2023-06-14T02:38:19;14.90;90.70
7512;DHT22;9999;48.780;9.146;2023-06-14T02:40:47;14.90;90.70
7512;DHT22;9999;48.780;9.146;2023-06-14T02:43:14;14.90;92.50
7512;DHT22;9999;48.780;9.146;2023-06-14T02:45:43;14.90;93.60
7512;DHT22;9999;48.780;9.146;2023-06-14T02:48:11;15.00;94.40
7512;DHT22;9999;48.780;9.146;2023-06-14T02:50:39;15.00;93.20
7512;DHT22;9999;48.780;9.146;2023-06-14T02:53:06;14.90;93.10
7512;DHT22;9999;48.780;9.146;2023-06-14T02:55:33;14.80;93.00
7512;DHT22;9999;48.780;9.146;2023-06-14T02:58:04;14.70;93.60
7512;DHT22;9999;48.780;9.146;2023-06-14T03:00:31;14.60;93.30
7512;DHT22;9999;48.780;9.146;2023-06-14T03:02:58;14.70;94.20
7512;DHT22;9999;48.780;9.146;2023-06-14T03:05:28;14.80;93.70
7512;DHT22;9999;48.780;9.146;2023-06-14T03:07:55;14.60;93.00
7512;DHT22;9999;48.780;9.146;2023-06-14T03:10:22;14.70;95.10
7512;DHT22;9999;48.780;9.146;2023-06-14T03:12:50;14.70;95.90
7512;DHT22;9999;48.780;9.146;2023-06-14T03:15:20;14.80;96.50
7512;DHT22;9999;48.780;9.146;2023-06-14T03:17:49;14.70;97.30
7512;DHT22;9999;48.780;9.146;2023-06-14T03:20:16;14.60;96.20
7512;DHT22;9999;48.780;9.146;2023-06-14T03:22:47;14.60;95.20
7512;DHT22;9999;48.780;9.146;2023-06-14T03:25:14;14.60;96.60
7512;DHT22;9999;48.780;9.146;2023-06-14T03:27:43;14.60;96.20
7512;DHT22;9999;48.780;9.146;2023-06-14T03:30:10;14.50;96.20
7512;DHT22;9999;48.780;9.146;2023-06-14T03:32:38;14.50;96.90
7512;DHT22;9999;48.780;9.146;2023-06-14T03:35:06;14.50;98.40
7512;DHT22;9999;48.780;9.146;2023-06-14T03:37:33;14.50;97.20
7512;DHT22;9999;48.780;9.146;2023-06-14T03:40:01;14.60;98.10
7512;DHT22;9999;48.780;9.146;2023-06-14T03:42:33;14.60;98.10
7512;DHT22;9999;48.780;9.146;2023-06-14T03:45:00;14.60;98.00
7512;DHT22;9999;48.780;9.146;2023-06-14T03:47:27;14.60;97.80
7512;DHT22;9999;48.780;9.146;2023-06-14T03:49:55;14.50;99.40
7512;DHT22;9999;48.780;9.146;2023-06-14T03:52:21;14.50;99.90
7512;DHT22;9999;48.780;9.146;2023-06-14T03:54:49;14.50;99.90
7512;DHT22;9999;48.780;9.146;2023-06-14T03:57:19;14.50;99.90
7512;DHT22;9999;48.780;9.146;2023-06-14T03:59:48;14.50;99.40
7512;DHT22;9999;48.780;9.146;2023-06-14T04:02:15;14.50;99.90
7512;DHT22;9999;48.780;9.146;2023-06-14T04:04:43;14.30;99.90
7512;DHT22;9999;48.780;9.146;2023-06-14T04:07:11;14.30;99.90
7512;DHT22;9999;48.780;9.146;2023-06-14T04:09:38;14.40;99.90
7512;DHT22;9999;48.780;9.146;2023-06-14T04:12:06;14.30;99.90
7512;DHT22;9999;48.780;9.146;2023-06-14T04:14:35;14.30;99.90
7512;DHT22;9999;48.780;9.146;2023-06-14T04:17:02;14.30;99.90
7512;DHT22;9999;48.780;9.146;2023-06-14T04:19:29;14.30;99.90
7512;DHT22;9999;48.780;9.146;2023-06-14T04:21:58;14.30;99.90
7512;DHT22;9999;48.780;9.146;2023-06-14T04:24:26;14.40;99.90
7512;DHT22;9999;48.780;9.146;2023-06-14T04:26:58;14.40;99.90
7512;DHT22;9999;48.780;9.146;2023-06-14T04:29:27;14.40;99.90
7512;DHT22;9999;48.780;9.146;2023-06-14T04:32:01;14.30;99.90
7512;DHT22;9999;48.780;9.146;2023-06-14T04:34:29;14.30;99.90
7512;DHT22;9999;48.780;9.146;2023-06-14T04:37:00;14.30;99.90
7512;DHT22;9999;48.780;9.146;2023-06-14T04:39:32;14.30;99.90
7512;DHT22;9999;48.780;9.146;2023-06-14T04:42:01;14.30;99.90
7512;DHT22;9999;48.780;9.146;2023-06-14T04:44:29;14.30;99.90
7512;DHT22;9999;48.780;9.146;2023-06-14T04:47:00;14.30;99.90
7512;DHT22;9999;48.780;9.146;2023-06-14T04:49:27;14.40;99.90
7512;DHT22;9999;48.780;9.146;2023-06-14T04:51:56;14.40;99.90
7512;DHT22;9999;48.780;9.146;2023-06-14T04:54:27;14.40;99.90
7512;DHT22;9999;48.780;9.146;2023-06-14T04:56:57;14.40;99.90
7512;DHT22;9999;48.780;9.146;2023-06-14T04:59:25;14.40;99.90
7512;DHT22;9999;48.780;9.146;2023-06-14T05:01:52;14.40;99.90
7512;DHT22;9999;48.780;9.146;2023-06-14T05:04:21;14.30;99.90
7512;DHT22;9999;48.780;9.146;2023-06-14T05:06:48;14.40;99.90
7512;DHT22;9999;48.780;9.146;2023-06-14T05:09:15;14.40;99.90
7512;DHT22;9999;48.780;9.146;2023-06-14T05:11:43;14.30;99.90
7512;DHT22;9999;48.780;9.146;2023-06-14T05:14:11;14.40;99.90
7512;DHT22;9999;48.780;9.146;2023-06-14T05:16:38;14.40;99.90
7512;DHT22;9999;48.780;9.146;2023-06-14T05:19:06;14.40;99.90
7512;DHT22;9999;48.780;9.146;2023-06-14T05:21:34;14.40;99.90
7512;DHT22;9999;48.780;9.146;2023-06-14T05:24:01;14.40;99.90
7512;DHT22;9999;48.780;9.146;2023-06-14T05:26:27;14.50;99.90
7512;DHT22;9999;48.780;9.146;2023-06-14T05:28:55;14.50;99.90
7512;DHT22;9999;48.780;9.146;2023-06-14T05:31:23;14.60;99.90
7512;DHT22;9999;48.780;9.146;2023-06-14T05:33:51;14.60;99.90
7512;DHT22;9999;48.780;9.146;2023-06-14T05:36:18;14.60;99.90
7512;DHT22;9999;48.780;9.146;2023-06-14T05:38:46;14.60;99.90
7512;DHT22;9999;48.780;9.146;2023-06-14T05:41:13;14.70;99.90
7512;DHT22;9999;48.780;9.146;2023-06-14T05:43:40;14.70;99.90
7512;DHT22;9999;48.780;9.146;2023-06-14T05:46:06;14.70;99.90
7512;DHT22;9999;48.780;9.146;2023-06-14T05:48:33;14.80;99.90
7512;DHT22;9999;48.780;9.146;2023-06-14T05:51:00;14.90;99.90
7512;DHT22;9999;48.780;9.146;2023-06-14T05:53:27;14.90;99.90
7512;DHT22;9999;48.780;9.146;2023-06-14T05:55:55;15.00;99.90
7512;DHT22;9999;48.780;9.146;2023-06-14T05:58:21;15.10;99.90
7512;DHT22;9999;48.780;9.146;2023-06-14T06:00:48;15.20;99.90
7512;DHT22;9999;48.780;9.146;2023-06-14T06:03:15;15.30;99.90
7512;DHT22;9999;48.780;9.146;2023-06-14T06:05:42;15.50;99.90
7512;DHT22;9999;48.780;9.146;2023-06-14T06:08:09;15.50;99.90
7512;DHT22;9999;48.780;9.146;2023-06-14T06:10:36;15.70;99.90
7512;DHT22;9999;48.780;9.146;2023-06-14T06:13:04;15.90;99.90
7512;DHT22;9999;48.780;9.146;2023-06-14T06:15:30;16.00;99.90
7512;DHT22;9999;48.780;9.146;2023-06-14T06:17:58;16.00;99.90
7512;DHT22;9999;48.780;9.146;2023-06-14T06:20:24;16.10;99.90
7512;DHT22;9999;48.780;9.146;2023-06-14T06:22:53;16.30;99.90
7512;DHT22;9999;48.780;9.146;2023-06-14T06:25:20;16.40;99.90
7512;DHT22;9999;48.780;9.146;2023-06-14T06:27:47;16.60;99.90
7512;DHT22;9999;48.780;9.146;2023-06-14T06:30:15;16.70;99.90
7512;DHT22;9999;48.780;9.146;2023-06-14T06:32:42;16.90;99.90
7512;DHT22;9999;48.780;9.146;2023-06-14T06:35:09;17.00;99.90
7512;DHT22;9999;48.780;9.146;2023-06-14T06:37:39;17.20;99.90
7512;DHT22;9999;48.780;9.146;2023-06-14T06:40:06;17.30;99.90
7512;DHT22;9999;48.780;9.146;2023-06-14T06:42:34;17.40;99.90
7512;DHT22;9999;48.780;9.146;2023-06-14T06:45:04;17.50;99.90
7512;DHT22;9999;48.780;9.146;2023-06-14T06:47:32;17.70;99.60
7512;DHT22;9999;48.780;9.146;2023-06-14T06:49:59;17.80;99.20
7512;DHT22;9999;48.780;9.146;2023-06-14T06:52:26;17.90;98.20
7512;DHT22;9999;48.780;9.146;2023-06-14T06:54:53;18.00;97.50
7512;DHT22;9999;48.780;9.146;2023-06-14T06:57:21;18.20;96.90
7512;DHT22;9999;48.780;9.146;2023-06-14T06:59:48;18.30;94.90
7512;DHT22;9999;48.780;9.146;2023-06-14T07:02:15;18.40;95.20
7512;DHT22;9999;48.780;9.146;2023-06-14T07:04:43;18.50;95.70
7512;DHT22;9999;48.780;9.146;2023-06-14T07:07:10;18.70;95.10
7512;DHT22;9999;48.780;9.146;2023-06-14T07:09:37;18.80;96.30
7512;DHT22;9999;48.780;9.146;2023-06-14T07:12:05;18.90;96.50
7512;DHT22;9999;48.780;9.146;2023-06-14T07:14:32;19.10;96.70
7512;DHT22;9999;48.780;9.146;2023-06-14T07:16:59;19.30;95.60
7512;DHT22;9999;48.780;9.146;2023-06-14T07:19:26;19.40;92.30
7512;DHT22;9999;48.780;9.146;2023-06-14T07:21:54;19.80;92.00
7512;DHT22;9999;48.780;9.146;2023-06-14T07:24:21;20.10;91.90
7512;DHT22;9999;48.780;9.146;2023-06-14T07:26:47;20.40;91.10
7512;DHT22;9999;48.780;9.146;2023-06-14T07:29:14;20.50;91.30
7512;DHT22;9999;48.780;9.146;2023-06-14T07:31:42;20.70;88.80
7512;DHT22;9999;48.780;9.146;2023-06-14T07:34:09;20.80;90.90
7512;DHT22;9999;48.780;9.146;2023-06-14T07:36:36;20.90;87.80
7512;DHT22;9999;48.780;9.146;2023-06-14T07:39:05;20.80;89.00
7512;DHT22;9999;48.780;9.146;2023-06-14T07:41:32;20.90;90.30
7512;DHT22;9999;48.780;9.146;2023-06-14T07:43:59;21.30;86.50
7512;DHT22;9999;48.780;9.146;2023-06-14T07:46:26;21.70;83.80
7512;DHT22;9999;48.780;9.146;2023-06-14T07:48:52;21.80;81.90
7512;DHT22;9999;48.780;9.146;2023-06-14T07:51:19;21.90;83.00
7512;DHT22;9999;48.780;9.146;2023-06-14T07:53:48;22.00;77.10
7512;DHT22;9999;48.780;9.146;2023-06-14T07:56:16;22.10;77.50
7512;DHT22;9999;48.780;9.146;2023-06-14T07:58:42;22.00;76.30
7512;DHT22;9999;48.780;9.146;2023-06-14T08:01:09;22.10;76.20
7512;DHT22;9999;48.780;9.146;2023-06-14T08:03:37;22.00;75.50
7512;DHT22;9999;48.780;9.146;2023-06-14T08:06:04;22.00;75.60
7512;DHT22;9999;48.780;9.146;2023-06-14T08:08:31;21.70;79.00
7512;DHT22;9999;48.780;9.146;2023-06-14T08:10:58;22.00;81.40
7512;DHT22;9999;48.780;9.146;2023-06-14T08:13:26;22.70;75.00
7512;DHT22;9999;48.780;9.146;2023-06-14T08:15:53;22.60;72.30
7512;DHT22;9999;48.780;9.146;2023-06-14T08:18:20;22.80;75.20
7512;DHT22;9999;48.780;9.146;2023-06-14T08:20:47;22.90;76.60
7512;DHT22;9999;48.780;9.146;2023-06-14T08:23:15;23.10;76.20
7512;DHT22;9999;48.780;9.146;2023-06-14T08:25:44;23.20;73.80
7512;DHT22;9999;48.780;9.146;2023-06-14T08:28:11;23.20;74.40
7512;DHT22;9999;48.780;9.146;2023-06-14T08:30:39;23.40;72.30
7512;DHT22;9999;48.780;9.146;2023-06-14T08:33:06;23.30;71.60
7512;DHT22;9999;48.780;9.146;2023-06-14T08:35:33;23.60;73.20
7512;DHT22;9999;48.780;9.146;2023-06-14T08:38:02;23.80;74.70
7512;DHT22;9999;48.780;9.146;2023-06-14T08:40:30;23.80;72.50
7512;DHT22;9999;48.780;9.146;2023-06-14T08:42:57;23.90;75.50
7512;DHT22;9999;48.780;9.146;2023-06-14T08:45:24;24.10;72.10
7512;DHT22;9999;48.780;9.146;2023-06-14T08:47:53;24.10;71.20
7512;DHT22;9999;48.780;9.146;2023-06-14T08:50:24;24.10;70.50
7512;DHT22;9999;48.780;9.146;2023-06-14T08:52:56;24.20;72.10
7512;DHT22;9999;48.780;9.146;2023-06-14T08:55:27;24.20;69.30
7512;DHT22;9999;48.780;9.146;2023-06-14T08:57:55;24.10;73.40
7512;DHT22;9999;48.780;9.146;2023-06-14T09:00:23;24.10;70.10
7512;DHT22;9999;48.780;9.146;2023-06-14T09:02:52;24.00;70.10
7512;DHT22;9999;48.780;9.146;2023-06-14T09:05:23;23.90;68.30
7512;DHT22;9999;48.780;9.146;2023-06-14T09:07:51;24.00;69.70
7512;DHT22;9999;48.780;9.146;2023-06-14T09:10:18;24.10;68.30
7512;DHT22;9999;48.780;9.146;2023-06-14T09:12:45;24.30;70.60
7512;DHT22;9999;48.780;9.146;2023-06-14T09:15:12;24.50;69.10
7512;DHT22;9999;48.780;9.146;2023-06-14T09:17:40;24.50;67.60
7512;DHT22;9999;48.780;9.146;2023-06-14T09:20:09;24.60;71.60
7512;DHT22;9999;48.780;9.146;2023-06-14T09:22:39;24.80;67.70
7512;DHT22;9999;48.780;9.146;2023-06-14T09:25:07;25.00;70.00
7512;DHT22;9999;48.780;9.146;2023-06-14T09:27:34;25.00;69.00
7512;DHT22;9999;48.780;9.146;2023-06-14T09:30:02;25.00;68.30
7512;DHT22;9999;48.780;9.146;2023-06-14T09:32:29;25.20;66.40
7512;DHT22;9999;48.780;9.146;2023-06-14T09:34:56;25.10;65.40
7512;DHT22;9999;48.780;9.146;2023-06-14T09:37:28;25.10;65.80
7512;DHT22;9999;48.780;9.146;2023-06-14T09:39:56;25.40;65.00
7512;DHT22;9999;48.780;9.146;2023-06-14T09:42:23;25.60;67.60
7512;DHT22;9999;48.780;9.146;2023-06-14T09:44:52;25.40;63.90
7512;DHT22;9999;48.780;9.146;2023-06-14T09:47:19;25.50;65.50
7512;DHT22;9999;48.780;9.146;2023-06-14T09:49:46;25.60;65.00
7512;DHT22;9999;48.780;9.146;2023-06-14T09:52:15;25.70;61.70
7512;DHT22;9999;48.780;9.146;2023-06-14T09:54:45;25.50;65.80
7512;DHT22;9999;48.780;9.146;2023-06-14T09:57:13;25.40;63.60
7512;DHT22;9999;48.780;9.146;2023-06-14T09:59:42;25.50;65.90
7512;DHT22;9999;48.780;9.146;2023-06-14T10:02:15;25.60;63.10
7512;DHT22;9999;48.780;9.146;2023-06-14T10:04:50;25.80;63.10
7512;DHT22;9999;48.780;9.146;2023-06-14T10:07:20;25.70;62.90
7512;DHT22;9999;48.780;9.146;2023-06-14T10:09:51;25.70;62.20
7512;DHT22;9999;48.780;9.146;2023-06-14T10:12:18;25.80;61.60
7512;DHT22;9999;48.780;9.146;2023-06-14T10:14:49;25.50;60.20
7512;DHT22;9999;48.780;9.146;2023-06-14T10:17:25;25.30;58.60
7512;DHT22;9999;48.780;9.146;2023-06-14T10:19:56;25.30;58.50
7512;DHT22;9999;48.780;9.146;2023-06-14T10:22:34;25.40;57.90
7512;DHT22;9999;48.780;9.146;2023-06-14T10:25:06;25.90;60.40
7512;DHT22;9999;48.780;9.146;2023-06-14T10:27:37;26.30;59.90
7512;DHT22;9999;48.780;9.146;2023-06-14T10:30:07;26.50;60.60
7512;DHT22;9999;48.780;9.146;2023-06-14T10:32:34;26.60;59.70
7512;DHT22;9999;48.780;9.146;2023-06-14T10:35:05;26.70;58.10
7512;DHT22;9999;48.780;9.146;2023-06-14T10:37:32;26.50;57.40
7512;DHT22;9999;48.780;9.146;2023-06-14T10:39:59;26.60;59.00
7512;DHT22;9999;48.780;9.146;2023-06-14T10:42:32;26.60;57.20
7512;DHT22;9999;48.780;9.146;2023-06-14T10:44:59;26.70;57.60
7512;DHT22;9999;48.780;9.146;2023-06-14T10:47:28;26.70;55.20
7512;DHT22;9999;48.780;9.146;2023-06-14T10:50:02;26.70;56.40
7512;DHT22;9999;48.780;9.146;2023-06-14T10:52:32;26.50;57.40
7512;DHT22;9999;48.780;9.146;2023-06-14T10:55:04;26.50;56.70
7512;DHT22;9999;48.780;9.146;2023-06-14T10:57:33;26.70;57.00
7512;DHT22;9999;48.780;9.146;2023-06-14T11:00:01;27.00;57.90
7512;DHT22;9999;48.780;9.146;2023-06-14T11:03:09;26.80;57.00
7512;DHT22;9999;48.780;9.146;2023-06-14T11:05:51;26.30;56.30
7512;DHT22;9999;48.780;9.146;2023-06-14T11:08:39;25.80;58.80
7512;DHT22;9999;48.780;9.146;2023-06-14T11:11:07;25.40;55.90
7512;DHT22;9999;48.780;9.146;2023-06-14T11:13:37;25.20;54.80
7512;DHT22;9999;48.780;9.146;2023-06-14T11:16:10;25.10;58.80
7512;DHT22;9999;48.780;9.146;2023-06-14T11:18:37;25.20;56.80
7512;DHT22;9999;48.780;9.146;2023-06-14T11:21:04;25.20;58.30
7512;DHT22;9999;48.780;9.146;2023-06-14T11:23:30;25.60;58.20
7512;DHT22;9999;48.780;9.146;2023-06-14T11:25:57;26.00;57.30
7512;DHT22;9999;48.780;9.146;2023-06-14T11:28:24;26.20;54.50
7512;DHT22;9999;48.780;9.146;2023-06-14T11:31:01;26.30;52.90
7512;DHT22;9999;48.780;9.146;2023-06-14T11:33:27;26.40;52.00
7512;DHT22;9999;48.780;9.146;2023-06-14T11:35:54;26.40;53.20
7512;DHT22;9999;48.780;9.146;2023-06-14T11:38:21;26.40;53.20
7512;DHT22;9999;48.780;9.146;2023-06-14T11:40:48;26.10;52.00
7512;DHT22;9999;48.780;9.146;2023-06-14T11:43:15;25.80;55.20
7512;DHT22;9999;48.780;9.146;2023-06-14T11:45:42;26.10;55.90
7512;DHT22;9999;48.780;9.146;2023-06-14T11:48:10;26.30;52.20
7512;DHT22;9999;48.780;9.146;2023-06-14T11:50:38;26.40;54.50
7512;DHT22;9999;48.780;9.146;2023-06-14T11:53:05;26.60;51.90
7512;DHT22;9999;48.780;9.146;2023-06-14T11:55:36;26.60;53.30
7512;DHT22;9999;48.780;9.146;2023-06-14T11:58:03;27.00;53.80
7512;DHT22;9999;48.780;9.146;2023-06-14T12:00:31;26.80;50.90
7512;DHT22;9999;48.780;9.146;2023-06-14T12:02:58;26.30;51.00
7512;DHT22;9999;48.780;9.146;2023-06-14T12:05:27;25.80;53.10
7512;DHT22;9999;48.780;9.146;2023-06-14T12:07:58;25.40;55.90
7512;DHT22;9999;48.780;9.146;2023-06-14T12:10:26;25.30;54.30
7512;DHT22;9999;48.780;9.146;2023-06-14T12:12:57;25.10;55.00
7512;DHT22;9999;48.780;9.146;2023-06-14T12:15:24;24.90;54.40
7512;DHT22;9999;48.780;9.146;2023-06-14T12:17:51;24.80;53.70
7512;DHT22;9999;48.780;9.146;2023-06-14T12:20:20;25.20;56.90
7512;DHT22;9999;48.780;9.146;2023-06-14T12:22:52;25.50;54.30
7512;DHT22;9999;48.780;9.146;2023-06-14T12:25:30;25.50;53.80
7512;DHT22;9999;48.780;9.146;2023-06-14T12:27:59;25.60;50.60
7512;DHT22;9999;48.780;9.146;2023-06-14T12:30:30;24.80;51.30
7512;DHT22;9999;48.780;9.146;2023-06-14T12:32:56;25.20;52.20
7512;DHT22;9999;48.780;9.146;2023-06-14T12:35:23;25.40;54.40
7512;DHT22;9999;48.780;9.146;2023-06-14T12:37:51;26.00;54.00
7512;DHT22;9999;48.780;9.146;2023-06-14T12:40:18;26.20;52.80
7512;DHT22;9999;48.780;9.146;2023-06-14T12:42:45;26.30;52.20
7512;DHT22;9999;48.780;9.146;2023-06-14T12:45:12;26.40;51.30
7512;DHT22;9999;48.780;9.146;2023-06-14T12:47:39;26.50;55.00
7512;DHT22;9999;48.780;9.146;2023-06-14T12:50:07;26.60;54.20
7512;DHT22;9999;48.780;9.146;2023-06-14T12:52:34;26.40;51.60
7512;DHT22;9999;48.780;9.146;2023-06-14T12:55:03;26.40;50.10
7512;DHT22;9999;48.780;9.146;2023-06-14T12:57:30;26.30;52.00
7512;DHT22;9999;48.780;9.146;2023-06-14T12:59:59;26.50;54.70
7512;DHT22;9999;48.780;9.146;2023-06-14T13:02:26;26.70;53.40
7512;DHT22;9999;48.780;9.146;2023-06-14T13:04:53;26.70;50.90
7512;DHT22;9999;48.780;9.146;2023-06-14T13:07:19;26.80;51.80
7512;DHT22;9999;48.780;9.146;2023-06-14T13:09:46;27.00;50.20
7512;DHT22;9999;48.780;9.146;2023-06-14T13:12:14;27.10;53.80
7512;DHT22;9999;48.780;9.146;2023-06-14T13:14:41;27.00;52.60
7512;DHT22;9999;48.780;9.146;2023-06-14T13:17:08;27.30;53.30
7512;DHT22;9999;48.780;9.146;2023-06-14T13:19:35;27.20;49.50
7512;DHT22;9999;48.780;9.146;2023-06-14T13:22:02;26.60;52.60
7512;DHT22;9999;48.780;9.146;2023-06-14T13:24:29;26.30;52.00
7512;DHT22;9999;48.780;9.146;2023-06-14T13:26:56;26.10;50.10
7512;DHT22;9999;48.780;9.146;2023-06-14T13:29:25;25.70;53.30
7512;DHT22;9999;48.780;9.146;2023-06-14T13:31:53;25.60;51.60
7512;DHT22;9999;48.780;9.146;2023-06-14T13:34:20;25.60;54.00
7512;DHT22;9999;48.780;9.146;2023-06-14T13:36:48;26.00;53.50
7512;DHT22;9999;48.780;9.146;2023-06-14T13:39:15;26.00;53.70
7512;DHT22;9999;48.780;9.146;2023-06-14T13:41:43;26.20;52.50
7512;DHT22;9999;48.780;9.146;2023-06-14T13:44:10;26.30;51.20
7512;DHT22;9999;48.780;9.146;2023-06-14T13:46:41;26.20;50.50
7512;DHT22;9999;48.780;9.146;2023-06-14T13:49:08;26.10;50.80
7512;DHT22;9999;48.780;9.146;2023-06-14T13:51:35;26.00;51.00
7512;DHT22;9999;48.780;9.146;2023-06-14T13:54:02;26.10;50.40
7512;DHT22;9999;48.780;9.146;2023-06-14T13:56:29;26.30;51.20
7512;DHT22;9999;48.780;9.146;2023-06-14T13:58:56;26.30;50.50
7512;DHT22;9999;48.780;9.146;2023-06-14T14:01:22;26.30;51.90
7512;DHT22;9999;48.780;9.146;2023-06-14T14:03:52;26.30;50.00
7512;DHT22;9999;48.780;9.146;2023-06-14T14:06:19;26.30;51.00
7512;DHT22;9999;48.780;9.146;2023-06-14T14:08:46;26.30;52.20
7512;DHT22;9999;48.780;9.146;2023-06-14T14:11:13;26.40;49.70
7512;DHT22;9999;48.780;9.146;2023-06-14T14:13:41;26.30;51.40
7512;DHT22;9999;48.780;9.146;2023-06-14T14:16:09;26.40;50.60
7512;DHT22;9999;48.780;9.146;2023-06-14T14:18:36;26.60;54.00
7512;DHT22;9999;48.780;9.146;2023-06-14T14:21:04;26.80;52.20
7512;DHT22;9999;48.780;9.146;2023-06-14T14:23:31;26.60;50.40
7512;DHT22;9999;48.780;9.146;2023-06-14T14:25:58;26.40;50.30
7512;DHT22;9999;48.780;9.146;2023-06-14T14:28:26;26.00;50.90
7512;DHT22;9999;48.780;9.146;2023-06-14T14:30:53;25.70;50.90
7512;DHT22;9999;48.780;9.146;2023-06-14T14:33:20;25.70;50.90
7512;DHT22;9999;48.780;9.146;2023-06-14T14:35:47;25.70;52.30
7512;DHT22;9999;48.780;9.146;2023-06-14T14:38:15;25.70;54.50
7512;DHT22;9999;48.780;9.146;2023-06-14T14:40:43;25.80;54.60
7512;DHT22;9999;48.780;9.146;2023-06-14T14:43:10;25.90;51.90
7512;DHT22;9999;48.780;9.146;2023-06-14T14:45:37;26.00;54.30
7512;DHT22;9999;48.780;9.146;2023-06-14T14:48:04;26.00;53.40
7512;DHT22;9999;48.780;9.146;2023-06-14T14:50:32;26.10;54.80
7512;DHT22;9999;48.780;9.146;2023-06-14T14:52:58;26.10;53.90
7512;DHT22;9999;48.780;9.146;2023-06-14T14:55:27;26.20;53.90
7512;DHT22;9999;48.780;9.146;2023-06-14T14:57:53;26.20;53.40
7512;DHT22;9999;48.780;9.146;2023-06-14T15:00:20;26.10;52.30
7512;DHT22;9999;48.780;9.146;2023-06-14T15:02:47;25.90;51.30
7512;DHT22;9999;48.780;9.146;2023-06-14T15:05:14;25.40;53.90
7512;DHT22;9999;48.780;9.146;2023-06-14T15:07:41;25.40;53.70
7512;DHT22;9999;48.780;9.146;2023-06-14T15:10:08;25.60;54.00
7512;DHT22;9999;48.780;9.146;2023-06-14T15:12:36;25.50;52.20
7512;DHT22;9999;48.780;9.146;2023-06-14T15:15:03;25.40;52.50
7512;DHT22;9999;48.780;9.146;2023-06-14T15:17:30;25.40;51.10
7512;DHT22;9999;48.780;9.146;2023-06-14T15:19:57;25.40;52.70
7512;DHT22;9999;48.780;9.146;2023-06-14T15:22:24;25.50;52.80
7512;DHT22;9999;48.780;9.146;2023-06-14T15:24:50;25.60;51.90
7512;DHT22;9999;48.780;9.146;2023-06-14T15:27:17;25.60;53.80
7512;DHT22;9999;48.780;9.146;2023-06-14T15:29:46;25.60;54.80
7512;DHT22;9999;48.780;9.146;2023-06-14T15:32:13;25.70;55.60
7512;DHT22;9999;48.780;9.146;2023-06-14T15:34:40;25.80;53.40
7512;DHT22;9999;48.780;9.146;2023-06-14T15:37:07;25.80;52.80
7512;DHT22;9999;48.780;9.146;2023-06-14T15:39:34;25.60;54.50
7512;DHT22;9999;48.780;9.146;2023-06-14T15:42:02;25.40;53.20
7512;DHT22;9999;48.780;9.146;2023-06-14T15:44:28;25.30;53.50
7512;DHT22;9999;48.780;9.146;2023-06-14T15:46:57;25.30;53.80
7512;DHT22;9999;48.780;9.146;2023-06-14T15:49:23;24.90;53.70
7512;DHT22;9999;48.780;9.146;2023-06-14T15:51:51;24.80;55.10
7512;DHT22;9999;48.780;9.146;2023-06-14T15:54:18;24.80;55.30
7512;DHT22;9999;48.780;9.146;2023-06-14T15:56:44;24.60;56.70
7512;DHT22;9999;48.780;9.146;2023-06-14T15:59:11;24.50;57.60
7512;DHT22;9999;48.780;9.146;2023-06-14T16:01:38;24.30;57.10
7512;DHT22;9999;48.780;9.146;2023-06-14T16:04:06;24.30;57.30
7512;DHT22;9999;48.780;9.146;2023-06-14T16:06:33;24.30;56.00
7512;DHT22;9999;48.780;9.146;2023-06-14T16:09:01;24.20;56.50